Disclaimer

Please do not use the information listed here in-flight or in-navigation, as they are not provided to us by the airports but are provided by volunteers, so they might be outdated.

Search


Regions


Airport information page

Radio informations:
Tower (TWR) - 118.9 MHz

Airport informations:
Latitude: 19° 16' 37.24" N
Longitude: 103° 34' 38.63" W
Elevation: 2467 feet - 752 meters
Operating hours: Remarks
Operating agency: Civil government, landing fees and diplomatic clearance may be required
Timezone: UTC-6(-5DT) - First Sunday in April to the last Saturday in October
Fuel: 80/87 octane gasoline, leaded, MIL-L-5572F (RED)

Runway information:
07/25 - 7546 x 148 feet< - >2300 x 45 meters

Recent METARs:
MMIA 131840Z 00000KT 8SM OVC100 28/21 A2999 RMK 6//// 8/03/
MMIA 131940Z 00000KT 8SM OVC100 27/21 A2996 RMK 6//// 8/03/ BINOVC
MMIA 131940Z 00000KT 8SM OVC100 27/21 A2996 RMK 6//// 8/03/ BINOVC

Airport on the map: